Time;durP1;ratioP1;P1;durP2;ratioP2;P2;SDS_P1;SDS_P2;PMS_P1;PMS_P2;Temp;Humidity;BMP_temperature;BMP_pressure;BME280_temperature;BME280_humidity;BME280_pressure;Samples;Min_cycle;Max_cycle;Signal;HPM_P1;HPM_P2
2022/09/11 00:01:42;;;;;;;0.60;0.60;;;14.90;99.90;;;;;;5034284;28;20449;-77
2022/09/11 00:04:11;;;;;;;0.50;0.40;;;14.90;99.90;;;;;;5033121;28;20508;-77
2022/09/11 00:06:37;;;;;;;0.50;0.33;;;14.90;99.90;;;;;;5034585;28;20533;-76
2022/09/11 00:09:06;;;;;;;0.90;0.80;;;14.90;99.90;;;;;;5034298;28;20442;-77
2022/09/11 00:11:36;;;;;;;0.50;0.40;;;14.90;99.90;;;;;;5033774;28;20524;-77
2022/09/11 00:14:02;;;;;;;0.50;0.40;;;14.90;99.90;;;;;;5033212;28;20480;-77
2022/09/11 00:16:32;;;;;;;0.50;0.40;;;14.90;99.90;;;;;;5034092;28;20481;-76
2022/09/11 00:19:01;;;;;;;0.50;0.30;;;14.80;99.90;;;;;;5034018;28;20466;-77
2022/09/11 00:21:30;;;;;;;0.50;0.40;;;14.80;99.90;;;;;;5033758;28;20442;-77
2022/09/11 00:23:57;;;;;;;0.50;0.40;;;14.70;99.90;;;;;;5033435;28;20882;-76
2022/09/11 00:26:25;;;;;;;0.50;0.40;;;14.70;99.90;;;;;;5033467;28;21027;-77
2022/09/11 00:28:52;;;;;;;0.50;0.40;;;14.70;99.90;;;;;;5033630;28;20549;-77
2022/09/11 00:31:22;;;;;;;0.50;0.40;;;14.60;99.90;;;;;;5033959;28;21030;-77
2022/09/11 00:33:50;;;;;;;0.50;0.40;;;14.60;99.90;;;;;;5033096;28;20528;-77
2022/09/11 00:36:18;;;;;;;0.50;0.37;;;14.60;99.90;;;;;;5033992;28;20446;-77
2022/09/11 00:38:47;;;;;;;2.40;2.30;;;14.70;99.90;;;;;;5033549;28;20434;-77
2022/09/11 00:41:15;;;;;;;0.50;0.40;;;14.80;99.90;;;;;;5033278;28;20537;-76
2022/09/11 00:43:55;;;;;;;0.50;0.30;;;14.80;99.90;;;;;;5033185;28;20544;-77
2022/09/11 00:46:24;;;;;;;0.50;0.30;;;14.80;99.90;;;;;;5033616;28;20426;-77
2022/09/11 00:48:53;;;;;;;0.50;0.30;;;14.80;99.90;;;;;;5033659;28;20477;-77
2022/09/11 00:51:24;;;;;;;0.50;0.30;;;14.80;99.90;;;;;;5033233;28;20446;-77
2022/09/11 00:53:54;;;;;;;0.50;0.40;;;14.70;99.90;;;;;;5033027;28;20513;-78
2022/09/11 00:56:22;;;;;;;0.50;0.40;;;14.70;99.90;;;;;;5033336;28;20438;-77
2022/09/11 00:58:53;;;;;;;0.50;0.40;;;14.70;99.90;;;;;;5033114;28;20465;-78
2022/09/11 01:01:20;;;;;;;0.50;0.30;;;14.80;99.90;;;;;;5033265;28;20507;-77
2022/09/11 01:03:47;;;;;;;0.50;0.40;;;14.80;99.90;;;;;;5032610;28;20470;-75
2022/09/11 01:06:14;;;;;;;0.50;0.40;;;14.80;99.90;;;;;;5032691;28;20438;-77
2022/09/11 01:08:42;;;;;;;0.50;0.30;;;14.70;99.90;;;;;;5032524;28;20446;-77
2022/09/11 01:11:22;;;;;;;0.50;0.37;;;14.80;99.90;;;;;;5032824;28;20453;-77
2022/09/11 01:13:56;;;;;;;0.50;0.40;;;14.80;99.90;;;;;;5032920;28;20474;-77
2022/09/11 01:16:31;;;;;;;1.10;1.10;;;14.80;99.90;;;;;;5032594;28;20438;-78
2022/09/11 01:19:07;;;;;;;0.50;0.40;;;14.80;99.90;;;;;;5032699;28;20520;-77
2022/09/11 01:21:56;;;;;;;0.50;0.40;;;14.90;99.90;;;;;;5032820;28;20426;-77
2022/09/11 01:24:43;;;;;;;0.50;0.40;;;14.80;99.90;;;;;;5032643;28;20542;-77
2022/09/11 01:27:40;;;;;;;0.50;0.40;;;14.70;99.90;;;;;;5032395;28;20446;-77
2022/09/11 01:30:09;;;;;;;0.60;0.50;;;14.70;99.90;;;;;;5032433;28;20442;-77
2022/09/11 01:32:45;;;;;;;0.50;0.33;;;14.80;99.90;;;;;;5032175;28;20448;-77
2022/09/11 01:35:17;;;;;;;2.40;2.30;;;14.90;99.90;;;;;;5031884;28;20461;-77
2022/09/11 01:37:50;;;;;;;0.50;0.30;;;14.90;99.90;;;;;;5032374;28;20442;-77
2022/09/11 01:40:22;;;;;;;0.50;0.40;;;15.00;99.90;;;;;;5032169;28;20450;-77
2022/09/11 01:42:56;;;;;;;0.50;0.40;;;15.10;99.90;;;;;;5031988;28;20470;-77
2022/09/11 01:45:24;;;;;;;0.50;0.40;;;15.20;99.90;;;;;;5032248;28;20501;-78
2022/09/11 01:47:52;;;;;;;0.50;0.40;;;15.20;99.90;;;;;;5031940;28;20837;-76
2022/09/11 01:50:22;;;;;;;0.70;0.60;;;15.30;99.90;;;;;;5032344;28;20434;-77
2022/09/11 01:52:52;;;;;;;2.40;2.30;;;15.30;99.90;;;;;;5031706;28;20544;-77
2022/09/11 01:55:24;;;;;;;0.50;0.37;;;15.40;99.90;;;;;;5031562;28;20488;-77
2022/09/11 01:57:56;;;;;;;0.50;0.37;;;15.30;99.90;;;;;;5032176;28;20437;-77
2022/09/11 02:00:23;;;;;;;0.50;0.40;;;15.30;99.90;;;;;;5031737;28;20426;-77
2022/09/11 02:02:57;;;;;;;0.73;0.73;;;15.30;99.90;;;;;;5032080;28;20470;-77
2022/09/11 02:05:29;;;;;;;0.50;0.30;;;15.30;99.90;;;;;;5042739;22;20485;-77
2022/09/11 02:08:01;;;;;;;0.50;0.30;;;15.30;99.90;;;;;;5016396;28;20438;-77
2022/09/11 02:10:34;;;;;;;0.50;0.30;;;15.30;99.90;;;;;;5031676;28;20438;-78
2022/09/11 02:13:11;;;;;;;0.50;0.30;;;15.30;99.90;;;;;;5032587;28;20438;-78
2022/09/11 02:15:42;;;;;;;0.50;0.40;;;15.30;99.90;;;;;;5031323;28;20505;-78
2022/09/11 02:18:17;;;;;;;0.50;0.30;;;15.20;99.90;;;;;;5031447;28;20438;-78
2022/09/11 02:20:46;;;;;;;0.50;0.40;;;15.20;99.90;;;;;;5031491;28;20827;-78
2022/09/11 02:23:13;;;;;;;0.50;0.40;;;15.30;99.90;;;;;;5031290;28;20944;-78
2022/09/11 02:25:40;;;;;;;0.50;0.40;;;15.20;99.90;;;;;;5031180;28;20458;-78
2022/09/11 02:28:09;;;;;;;0.50;0.40;;;15.20;99.90;;;;;;5031330;28;20442;-79
2022/09/11 02:30:38;;;;;;;0.50;0.30;;;15.20;99.90;;;;;;5031681;28;20807;-76
2022/09/11 02:33:05;;;;;;;0.50;0.30;;;15.10;99.90;;;;;;5031747;28;20442;-75
2022/09/11 02:35:44;;;;;;;0.50;0.40;;;15.00;99.90;;;;;;5030936;28;20987;-76
2022/09/11 02:38:19;;;;;;;2.53;2.43;;;15.00;99.90;;;;;;5031343;28;20422;-76
2022/09/11 02:40:55;;;;;;;0.50;0.30;;;14.90;99.90;;;;;;5031259;28;20433;-76
2022/09/11 02:43:46;;;;;;;0.50;0.40;;;14.90;99.90;;;;;;5031540;28;20425;-76
2022/09/11 02:46:39;;;;;;;0.50;0.40;;;14.70;99.90;;;;;;5031365;28;20452;-75
2022/09/11 02:49:17;;;;;;;0.50;0.33;;;14.70;99.90;;;;;;5030356;28;20454;-76
2022/09/11 02:51:49;;;;;;;0.50;0.40;;;14.60;99.90;;;;;;5031099;28;20450;-76
2022/09/11 02:54:27;;;;;;;0.50;0.30;;;14.60;99.90;;;;;;5030748;28;20473;-76
2022/09/11 02:56:59;;;;;;;0.50;0.30;;;14.60;99.90;;;;;;5031269;28;20450;-75
2022/09/11 02:59:32;;;;;;;0.50;0.40;;;14.50;99.90;;;;;;5031340;28;20432;-76
2022/09/11 03:02:00;;;;;;;0.60;0.60;;;14.50;99.90;;;;;;5031157;28;21147;-74
2022/09/11 03:04:28;;;;;;;0.50;0.40;;;14.70;99.90;;;;;;5030371;28;20462;-76
2022/09/11 03:06:58;;;;;;;0.50;0.40;;;14.60;99.90;;;;;;5031082;28;20445;-76
2022/09/11 03:09:25;;;;;;;0.50;0.40;;;14.60;99.90;;;;;;5031166;28;20452;-76
2022/09/11 03:11:52;;;;;;;0.50;0.30;;;14.70;99.90;;;;;;5031249;28;20450;-72
2022/09/11 03:14:18;;;;;;;0.50;0.40;;;14.80;99.90;;;;;;5030654;28;20517;-76
2022/09/11 03:16:47;;;;;;;0.50;0.40;;;14.90;99.90;;;;;;5030563;28;20431;-73
2022/09/11 03:19:14;;;;;;;0.50;0.40;;;15.00;99.90;;;;;;5030476;28;20986;-76
2022/09/11 03:21:41;;;;;;;0.50;0.30;;;14.90;99.90;;;;;;5030987;28;20438;-76
2022/09/11 03:24:09;;;;;;;0.50;0.30;;;15.00;99.90;;;;;;5030695;28;20466;-78
2022/09/11 03:26:36;;;;;;;0.50;0.30;;;15.10;99.90;;;;;;5030549;28;20523;-78
2022/09/11 03:29:03;;;;;;;0.50;0.33;;;15.10;99.90;;;;;;5031088;28;20986;-78
2022/09/11 03:31:30;;;;;;;0.93;0.93;;;15.20;99.90;;;;;;5030811;28;20481;-78
2022/09/11 03:33:58;;;;;;;0.50;0.43;;;15.20;99.90;;;;;;5031062;28;20450;-77
2022/09/11 03:36:25;;;;;;;1.83;1.37;;;15.20;99.90;;;;;;5034810;28;20544;-77
2022/09/11 03:38:54;;;;;;;0.50;0.40;;;15.30;99.90;;;;;;5035404;28;20440;-78
2022/09/11 03:41:21;;;;;;;0.50;0.40;;;15.30;99.90;;;;;;5034612;28;20961;-77
2022/09/11 03:43:48;;;;;;;2.00;1.90;;;15.30;99.90;;;;;;5034596;28;20525;-78
2022/09/11 03:46:16;;;;;;;0.50;0.50;;;15.30;99.90;;;;;;5035245;28;20429;-78
2022/09/11 03:48:44;;;;;;;0.70;0.70;;;15.20;99.90;;;;;;5034875;28;20959;-78
2022/09/11 03:51:13;;;;;;;0.60;0.60;;;15.10;99.90;;;;;;5034904;28;20442;-77
2022/09/11 03:53:41;;;;;;;0.50;0.30;;;15.20;99.90;;;;;;5034529;28;20441;-77
2022/09/11 03:56:07;;;;;;;0.50;0.30;;;15.20;99.90;;;;;;5034312;28;20477;-77
2022/09/11 03:58:34;;;;;;;0.50;0.40;;;15.20;99.90;;;;;;5034375;28;20999;-78
2022/09/11 04:01:01;;;;;;;0.50;0.40;;;15.20;99.90;;;;;;5034849;28;20834;-78
2022/09/11 04:03:30;;;;;;;0.50;0.40;;;15.20;99.90;;;;;;5034805;28;20448;-78
2022/09/11 04:05:58;;;;;;;1.37;1.27;;;15.20;99.90;;;;;;5033739;28;20983;-78
2022/09/11 04:08:27;;;;;;;3.27;3.17;;;15.20;99.90;;;;;;5034500;28;20480;-78
2022/09/11 04:10:57;;;;;;;0.50;0.40;;;15.20;99.90;;;;;;5034535;28;20932;-78
2022/09/11 04:13:27;;;;;;;0.50;0.30;;;15.20;99.90;;;;;;5034541;28;20452;-78
2022/09/11 04:15:54;;;;;;;0.50;0.40;;;15.20;99.90;;;;;;5033798;28;20504;-78
2022/09/11 04:18:20;;;;;;;1.50;1.40;;;15.20;99.90;;;;;;5033426;28;20540;-78
2022/09/11 04:20:47;;;;;;;0.50;0.40;;;15.20;99.90;;;;;;5033580;28;20450;-77
2022/09/11 04:23:14;;;;;;;0.50;0.30;;;15.20;99.90;;;;;;5033665;28;20442;-77
2022/09/11 04:25:42;;;;;;;0.50;0.30;;;15.30;99.90;;;;;;5032969;28;20589;-77
2022/09/11 04:28:09;;;;;;;0.50;0.40;;;15.30;99.90;;;;;;5033884;28;20442;-77
2022/09/11 04:30:37;;;;;;;2.30;1.53;;;15.30;99.90;;;;;;5034051;28;20548;-78
2022/09/11 04:33:04;;;;;;;0.50;0.50;;;15.30;99.90;;;;;;5033628;28;20453;-77
2022/09/11 04:35:31;;;;;;;0.50;0.37;;;15.30;99.90;;;;;;5032885;28;20473;-77
2022/09/11 04:37:58;;;;;;;0.60;0.60;;;15.30;99.90;;;;;;5033464;28;20531;-77
2022/09/11 04:40:25;;;;;;;0.60;0.40;;;15.30;99.90;;;;;;5033686;28;20450;-77
2022/09/11 04:42:53;;;;;;;0.50;0.40;;;15.20;99.90;;;;;;5033525;28;20437;-78
2022/09/11 04:45:20;;;;;;;0.50;0.40;;;15.20;99.90;;;;;;5032070;28;20553;-78
2022/09/11 04:47:47;;;;;;;0.50;0.50;;;15.20;99.90;;;;;;5033427;28;20442;-74
2022/09/11 04:50:13;;;;;;;0.50;0.30;;;15.10;99.90;;;;;;5033293;28;20438;-77
2022/09/11 04:52:40;;;;;;;0.50;0.30;;;15.10;99.90;;;;;;5032672;28;20943;-76
2022/09/11 04:55:08;;;;;;;0.50;0.30;;;15.20;99.90;;;;;;5033024;28;20473;-78
2022/09/11 04:57:35;;;;;;;0.50;0.40;;;15.20;99.90;;;;;;5033113;28;20542;-78
2022/09/11 05:00:04;;;;;;;0.50;0.50;;;15.20;99.90;;;;;;5033546;28;20823;-77
2022/09/11 05:02:32;;;;;;;0.50;0.30;;;15.20;99.90;;;;;;5032500;28;20925;-78
2022/09/11 05:04:59;;;;;;;0.50;0.40;;;15.20;99.90;;;;;;5032905;28;20557;-77
2022/09/11 05:07:26;;;;;;;0.50;0.33;;;15.20;99.90;;;;;;5033019;28;20673;-77
2022/09/11 05:09:53;;;;;;;0.50;0.40;;;15.20;99.90;;;;;;5033395;28;20529;-78
2022/09/11 05:12:20;;;;;;;0.50;0.30;;;15.20;99.90;;;;;;5032740;28;20491;-78
2022/09/11 05:14:46;;;;;;;0.50;0.40;;;15.20;99.90;;;;;;5032250;28;20536;-78
2022/09/11 05:17:15;;;;;;;0.50;0.40;;;15.20;99.90;;;;;;5032058;28;20442;-78
2022/09/11 05:19:42;;;;;;;0.70;0.70;;;15.20;99.90;;;;;;5032688;28;20435;-78
2022/09/11 05:22:09;;;;;;;0.50;0.40;;;15.20;99.90;;;;;;5032546;28;20457;-78
2022/09/11 05:24:35;;;;;;;0.50;0.30;;;15.20;99.90;;;;;;5032504;28;20862;-77
2022/09/11 05:27:03;;;;;;;0.50;0.40;;;15.20;99.90;;;;;;5031900;28;20532;-78
2022/09/11 05:29:30;;;;;;;0.50;0.30;;;15.20;99.90;;;;;;5032685;28;20450;-77
2022/09/11 05:31:58;;;;;;;0.50;0.40;;;15.30;99.90;;;;;;5032711;28;20480;-77
2022/09/11 05:34:27;;;;;;;0.50;0.40;;;15.30;99.90;;;;;;5031886;28;20461;-77
2022/09/11 05:36:56;;;;;;;0.70;0.70;;;15.40;99.90;;;;;;5032338;28;20485;-77
2022/09/11 05:39:23;;;;;;;1.67;1.57;;;15.40;99.90;;;;;;5032305;28;20857;-78
2022/09/11 05:41:51;;;;;;;0.50;0.37;;;15.40;99.90;;;;;;5032283;28;20445;-76
2022/09/11 05:44:18;;;;;;;0.50;0.30;;;15.50;99.90;;;;;;5031910;28;20477;-78
2022/09/11 05:46:45;;;;;;;0.70;0.70;;;15.50;99.90;;;;;;5032137;28;20803;-78
2022/09/11 05:49:12;;;;;;;3.40;3.03;;;15.50;99.90;;;;;;5031965;28;20443;-77
2022/09/11 05:51:40;;;;;;;23.80;1.07;;;15.50;99.90;;;;;;5032576;28;20442;-77
2022/09/11 05:54:07;;;;;;;0.87;0.87;;;15.50;99.90;;;;;;5031481;28;20835;-76
2022/09/11 05:56:35;;;;;;;1.57;1.50;;;15.50;99.90;;;;;;5030607;28;21010;-78
2022/09/11 05:59:02;;;;;;;0.60;0.40;;;15.40;99.90;;;;;;5032064;28;20948;-77
2022/09/11 06:01:29;;;;;;;0.50;0.40;;;15.40;99.90;;;;;;5032413;28;20450;-78
2022/09/11 06:03:56;;;;;;;0.50;0.40;;;15.30;99.90;;;;;;5031113;28;20458;-78
2022/09/11 06:06:24;;;;;;;3.10;2.70;;;15.30;99.90;;;;;;5031654;28;20438;-76
2022/09/11 06:08:52;;;;;;;1.60;1.33;;;15.40;99.90;;;;;;5031681;28;20445;-77
2022/09/11 06:11:21;;;;;;;4.87;2.00;;;15.40;99.90;;;;;;5032010;28;20438;-77
2022/09/11 06:13:49;;;;;;;0.70;0.70;;;15.40;99.90;;;;;;5031147;28;20448;-77
2022/09/11 06:16:17;;;;;;;1.37;1.37;;;15.50;99.90;;;;;;5031598;28;20478;-78
2022/09/11 06:18:47;;;;;;;3.80;3.50;;;15.60;99.90;;;;;;5030532;28;20525;-78
2022/09/11 06:21:18;;;;;;;0.50;0.40;;;15.60;99.90;;;;;;5031603;28;20484;-77
2022/09/11 06:23:45;;;;;;;0.50;0.30;;;15.70;99.90;;;;;;5031301;28;20470;-78
2022/09/11 06:26:15;;;;;;;0.50;0.30;;;15.80;99.90;;;;;;5031303;28;20529;-78
2022/09/11 06:28:42;;;;;;;0.97;0.97;;;15.90;99.90;;;;;;5031925;28;20447;-77
2022/09/11 06:31:15;;;;;;;0.50;0.30;;;15.90;99.90;;;;;;5031418;28;20819;-77
2022/09/11 06:33:42;;;;;;;2.87;1.47;;;15.90;99.90;;;;;;5031222;28;20446;-76
2022/09/11 06:36:11;;;;;;;0.50;0.30;;;16.00;99.90;;;;;;5031118;28;20848;-77
2022/09/11 06:38:38;;;;;;;0.50;0.40;;;16.10;99.90;;;;;;5031402;28;20442;-76
2022/09/11 06:41:09;;;;;;;0.50;0.40;;;16.10;99.90;;;;;;5031408;28;20442;-77
2022/09/11 06:43:37;;;;;;;0.50;0.30;;;16.00;99.90;;;;;;5031396;28;20449;-78
2022/09/11 06:46:05;;;;;;;0.50;0.40;;;15.90;99.90;;;;;;5031080;28;20537;-76
2022/09/11 06:48:32;;;;;;;1.23;0.97;;;16.00;99.90;;;;;;5031086;28;20936;-77
2022/09/11 06:51:02;;;;;;;0.50;0.30;;;15.90;99.90;;;;;;5031233;28;20438;-78
2022/09/11 06:53:29;;;;;;;8.87;3.47;;;15.90;99.90;;;;;;5031720;28;20434;-78
2022/09/11 06:55:59;;;;;;;2.30;2.20;;;15.80;99.90;;;;;;5030762;28;20474;-78
2022/09/11 06:58:26;;;;;;;0.50;0.40;;;15.90;99.90;;;;;;5031037;28;20476;-78
2022/09/11 07:00:54;;;;;;;0.50;0.37;;;15.90;99.90;;;;;;5030982;28;20887;-73
2022/09/11 07:03:21;;;;;;;0.50;0.40;;;16.00;99.90;;;;;;5030893;28;20533;-77
2022/09/11 07:05:48;;;;;;;0.50;0.30;;;16.00;99.90;;;;;;5030623;28;20836;-78
2022/09/11 07:08:15;;;;;;;0.50;0.30;;;16.10;99.90;;;;;;5032176;28;20469;-77
2022/09/11 07:10:42;;;;;;;0.50;0.30;;;16.20;99.90;;;;;;5035129;28;20946;-77
2022/09/11 07:13:08;;;;;;;0.50;0.30;;;16.30;99.90;;;;;;5035301;28;20532;-78
2022/09/11 07:15:35;;;;;;;0.50;0.30;;;16.40;99.90;;;;;;5034568;28;20994;-77
2022/09/11 07:18:04;;;;;;;0.50;0.50;;;16.50;99.90;;;;;;5034709;28;20434;-77
2022/09/11 07:20:31;;;;;;;0.50;0.37;;;16.40;99.90;;;;;;5035127;28;20576;-78
2022/09/11 07:22:58;;;;;;;0.50;0.40;;;16.40;99.90;;;;;;5034617;28;20478;-78
2022/09/11 07:25:25;;;;;;;1.63;1.53;;;16.50;99.90;;;;;;5034526;28;20480;-78
2022/09/11 07:27:52;;;;;;;0.50;0.40;;;16.40;99.90;;;;;;5034629;28;20449;-77
2022/09/11 07:30:19;;;;;;;2.70;2.50;;;16.60;99.90;;;;;;5034835;28;20433;-78
2022/09/11 07:32:46;;;;;;;6.13;5.63;;;16.70;99.90;;;;;;5034486;28;20522;-78
2022/09/11 07:35:20;;;;;;;0.70;0.70;;;16.70;99.90;;;;;;5034168;28;20488;-77
2022/09/11 07:37:47;;;;;;;0.50;0.30;;;16.70;99.90;;;;;;5034650;28;20900;-78
2022/09/11 07:40:14;;;;;;;0.50;0.30;;;16.70;99.90;;;;;;5034730;28;20645;-78
2022/09/11 07:42:41;;;;;;;0.50;0.30;;;16.60;99.90;;;;;;5034840;28;20437;-77
2022/09/11 07:45:10;;;;;;;0.50;0.30;;;16.70;99.90;;;;;;5034015;28;20981;-78
2022/09/11 07:47:37;;;;;;;1.67;0.90;;;16.70;99.90;;;;;;5034145;28;20438;-78
2022/09/11 07:50:05;;;;;;;0.50;0.30;;;16.60;99.90;;;;;;5034213;28;20445;-77
2022/09/11 07:52:33;;;;;;;0.50;0.40;;;16.60;99.90;;;;;;5034474;28;20825;-78
2022/09/11 07:55:02;;;;;;;0.50;0.30;;;16.80;99.90;;;;;;5033863;28;20457;-78
2022/09/11 07:57:31;;;;;;;0.50;0.40;;;17.10;99.90;;;;;;5033979;28;20500;-77
2022/09/11 07:59:57;;;;;;;0.73;0.73;;;17.20;99.90;;;;;;5034335;28;20476;-78
2022/09/11 08:02:24;;;;;;;0.50;0.30;;;17.20;99.90;;;;;;5034106;28;20448;-78
2022/09/11 08:04:51;;;;;;;11.33;4.63;;;17.40;99.90;;;;;;5033616;28;20854;-78
2022/09/11 08:07:18;;;;;;;0.63;0.57;;;17.30;99.90;;;;;;5034554;28;20438;-78
2022/09/11 08:09:46;;;;;;;0.50;0.40;;;17.40;99.90;;;;;;5045824;22;20637;-77
2022/09/11 08:12:13;;;;;;;1.27;0.90;;;17.50;99.90;;;;;;4999529;28;20884;-78
2022/09/11 08:14:40;;;;;;;1.47;1.37;;;17.60;99.90;;;;;;5003782;28;20526;-76
2022/09/11 08:17:07;;;;;;;0.50;0.40;;;17.30;99.90;;;;;;5013912;28;20479;-78
2022/09/11 08:19:33;;;;;;;0.50;0.40;;;17.20;99.90;;;;;;5013210;28;20561;-78
2022/09/11 08:22:00;;;;;;;0.50;0.30;;;17.30;99.90;;;;;;5014016;28;20875;-78
2022/09/11 08:24:27;;;;;;;2.03;1.93;;;17.30;99.90;;;;;;5013251;28;20530;-77
2022/09/11 08:26:56;;;;;;;4.50;4.20;;;17.30;99.90;;;;;;5013941;28;20446;-78
2022/09/11 08:29:24;;;;;;;0.50;0.40;;;17.30;99.90;;;;;;5013694;28;20446;-78
2022/09/11 08:31:51;;;;;;;9.67;5.73;;;17.30;99.90;;;;;;5013932;28;20446;-78
2022/09/11 08:34:21;;;;;;;1.03;1.03;;;17.20;99.90;;;;;;5013056;28;20872;-74
2022/09/11 08:36:48;;;;;;;0.57;0.50;;;17.20;99.90;;;;;;5014008;28;20636;-77
2022/09/11 08:39:15;;;;;;;0.70;0.70;;;17.10;99.90;;;;;;5013639;28;20967;-77
2022/09/11 08:41:47;;;;;;;0.53;0.40;;;17.20;99.90;;;;;;5013254;28;20439;-78
2022/09/11 08:44:21;;;;;;;0.50;0.40;;;17.10;99.90;;;;;;5013418;28;20813;-77
2022/09/11 08:46:52;;;;;;;1.97;1.13;;;17.20;99.90;;;;;;5013543;28;20972;-79
2022/09/11 08:49:24;;;;;;;0.50;0.40;;;17.30;99.90;;;;;;5013434;28;20439;-78
2022/09/11 08:51:53;;;;;;;0.50;0.30;;;17.50;99.90;;;;;;5013408;28;20514;-78
2022/09/11 08:55:01;;;;;;;0.50;0.50;;;17.40;99.90;;;;;;5013337;28;20441;-74
2022/09/11 08:57:38;;;;;;;0.50;0.30;;;17.40;99.90;;;;;;5013456;28;20480;-77
2022/09/11 09:00:14;;;;;;;0.50;0.40;;;17.50;99.90;;;;;;5012994;28;20459;-78
2022/09/11 09:03:15;;;;;;;0.50;0.40;;;17.60;99.90;;;;;;5013232;28;20450;-77
2022/09/11 09:05:49;;;;;;;0.50;0.30;;;17.60;99.90;;;;;;5012988;28;20438;-76
2022/09/11 09:08:30;;;;;;;0.50;0.50;;;17.60;99.90;;;;;;5013001;28;20435;-76
2022/09/11 09:11:04;;;;;;;0.50;0.40;;;17.60;99.90;;;;;;5013170;28;20478;-73
2022/09/11 09:13:53;;;;;;;0.50;0.30;;;17.60;99.90;;;;;;5012864;28;20423;-76
2022/09/11 09:16:33;;;;;;;0.50;0.30;;;17.60;99.90;;;;;;5012747;28;20561;-76
2022/09/11 09:19:09;;;;;;;0.50;0.40;;;17.60;99.90;;;;;;5013017;28;20449;-76
2022/09/11 09:21:40;;;;;;;0.50;0.30;;;17.60;99.90;;;;;;5012842;28;20821;-76
2022/09/11 09:24:18;;;;;;;9.00;8.13;;;17.50;99.90;;;;;;5012564;28;20424;-76
2022/09/11 09:26:49;;;;;;;0.50;0.30;;;17.50;99.90;;;;;;5012596;28;20530;-76
2022/09/11 09:29:20;;;;;;;0.50;0.40;;;17.30;99.90;;;;;;5012962;28;20544;-77
2022/09/11 09:31:51;;;;;;;0.50;0.30;;;17.40;99.90;;;;;;5012442;28;20550;-77
2022/09/11 09:34:20;;;;;;;0.50;0.40;;;17.40;99.90;;;;;;5012088;28;20454;-73
2022/09/11 09:36:55;;;;;;;0.50;0.30;;;17.40;99.90;;;;;;5012414;28;20536;-76
2022/09/11 09:39:22;;;;;;;2.87;2.13;;;17.50;99.90;;;;;;5012727;28;20525;-76
2022/09/11 09:42:25;;;;;;;0.50;0.40;;;17.20;99.90;;;;;;5012573;28;20805;-76
2022/09/11 09:45:04;;;;;;;0.50;0.40;;;17.20;99.90;;;;;;4951581;29;20536;-76
2022/09/11 09:47:33;;;;;;;0.50;0.40;;;17.30;99.90;;;;;;5005376;28;20435;-76
2022/09/11 09:50:00;;;;;;;0.50;0.30;;;17.30;99.90;;;;;;5012124;28;20517;-76
2022/09/11 09:52:34;;;;;;;0.87;0.87;;;17.40;99.90;;;;;;5012503;28;20439;-78
2022/09/11 09:55:04;;;;;;;1.47;1.23;;;17.40;99.90;;;;;;5012363;28;20419;-77
2022/09/11 09:57:34;;;;;;;0.50;0.40;;;17.40;99.90;;;;;;5012088;28;20486;-76
2022/09/11 10:00:06;;;;;;;0.50;0.30;;;17.40;99.90;;;;;;5012150;28;20489;-78
2022/09/11 10:02:42;;;;;;;0.50;0.30;;;17.60;99.90;;;;;;5012596;28;20498;-76
2022/09/11 10:05:18;;;;;;;0.67;0.67;;;17.80;99.90;;;;;;5012372;28;20474;-77
2022/09/11 10:07:50;;;;;;;0.50;0.40;;;17.90;99.90;;;;;;5012744;28;20439;-77
2022/09/11 10:10:28;;;;;;;0.50;0.30;;;18.10;99.90;;;;;;5013306;28;20471;-77
2022/09/11 10:12:58;;;;;;;0.50;0.30;;;18.30;99.90;;;;;;5013613;28;20529;-76
2022/09/11 10:15:26;;;;;;;0.50;0.40;;;18.30;99.90;;;;;;5017570;28;20510;-75
2022/09/11 10:18:20;;;;;;;0.50;0.30;;;18.30;99.90;;;;;;5014894;28;20487;-76
2022/09/11 10:20:47;;;;;;;2.07;1.97;;;18.40;99.90;;;;;;5014846;28;20502;-76
2022/09/11 10:23:23;;;;;;;0.50;0.30;;;18.30;99.90;;;;;;5014869;28;20508;-75
2022/09/11 10:25:50;;;;;;;2.00;1.17;;;18.10;99.90;;;;;;5014905;28;20475;-76
2022/09/11 10:28:22;;;;;;;1.60;1.50;;;18.20;99.90;;;;;;5015782;28;20513;-76
2022/09/11 10:30:58;;;;;;;0.60;0.60;;;18.30;99.90;;;;;;5016015;28;21061;-77
2022/09/11 10:33:29;;;;;;;0.93;0.93;;;18.50;99.90;;;;;;5015365;28;20434;-75
2022/09/11 10:35:58;;;;;;;0.50;0.40;;;18.70;99.90;;;;;;5015879;28;20427;-75
2022/09/11 10:38:31;;;;;;;0.50;0.40;;;18.80;99.90;;;;;;5015805;28;20525;-73
2022/09/11 10:41:08;;;;;;;0.50;0.30;;;18.70;99.90;;;;;;5015715;28;20494;-75
2022/09/11 10:43:42;;;;;;;0.50;0.37;;;18.70;99.90;;;;;;5015362;28;20423;-75
2022/09/11 10:46:28;;;;;;;0.60;0.30;;;18.90;99.90;;;;;;5015514;28;20893;-74
2022/09/11 10:48:58;;;;;;;0.50;0.30;;;19.00;99.90;;;;;;5015943;28;20431;-75
2022/09/11 10:51:26;;;;;;;0.97;0.97;;;19.10;99.90;;;;;;5015189;28;20534;-76
2022/09/11 10:54:13;;;;;;;0.50;0.30;;;19.00;99.90;;;;;;5015085;28;20509;-74
2022/09/11 10:56:47;;;;;;;0.50;0.40;;;18.90;99.90;;;;;;5012859;28;20542;-75
2022/09/11 10:59:21;;;;;;;1.00;1.00;;;19.10;99.90;;;;;;5016016;28;20992;-75
2022/09/11 11:01:49;;;;;;;0.50;0.30;;;19.40;99.90;;;;;;5015357;28;20423;-76
2022/09/11 11:04:17;;;;;;;3.07;2.07;;;20.10;99.90;;;;;;5015211;28;20458;-78
2022/09/11 11:06:59;;;;;;;0.80;0.80;;;20.70;99.90;;;;;;5015442;28;20451;-75
2022/09/11 11:09:48;;;;;;;0.60;0.60;;;20.90;99.90;;;;;;5016114;28;20426;-75
2022/09/11 11:12:30;;;;;;;0.50;0.40;;;22.10;99.90;;;;;;5015103;28;20462;-74
2022/09/11 11:15:26;;;;;;;0.50;0.30;;;23.70;99.90;;;;;;5014871;28;20824;-74
2022/09/11 11:18:08;;;;;;;0.50;0.30;;;24.70;99.90;;;;;;5014503;28;20479;-75
2022/09/11 11:20:49;;;;;;;0.50;0.30;;;25.60;99.90;;;;;;5014335;28;20458;-76
2022/09/11 11:23:36;;;;;;;0.50;0.30;;;25.60;99.90;;;;;;5013615;28;20427;-77
2022/09/11 11:26:17;;;;;;;0.60;0.50;;;25.50;99.90;;;;;;5012771;28;20441;-78
2022/09/11 11:29:13;;;;;;;2.53;2.40;;;25.20;99.90;;;;;;5013128;28;20426;-76
2022/09/11 11:31:51;;;;;;;0.50;0.40;;;24.90;99.90;;;;;;5007353;28;20824;-77
2022/09/11 11:34:37;;;;;;;0.60;0.53;;;25.70;99.90;;;;;;5011575;28;20445;-78
2022/09/11 11:37:09;;;;;;;0.67;0.67;;;26.20;99.90;;;;;;5011456;28;20477;-76
2022/09/11 11:39:43;;;;;;;0.50;0.40;;;26.90;99.90;;;;;;5011607;28;20465;-77
2022/09/11 11:42:16;;;;;;;2.43;1.23;;;27.00;99.90;;;;;;5012017;28;20770;-77
2022/09/11 11:44:48;;;;;;;0.50;0.30;;;26.90;99.90;;;;;;5011745;28;20446;-76
2022/09/11 11:47:18;;;;;;;8.00;2.87;;;27.40;99.90;;;;;;5011569;28;20461;-77
2022/09/11 11:49:56;;;;;;;1.37;0.50;;;27.80;99.90;;;;;;5012134;28;20518;-79
2022/09/11 11:52:35;;;;;;;0.60;0.53;;;28.20;99.90;;;;;;5015969;28;20502;-77
2022/09/11 11:55:09;;;;;;;3.13;2.90;;;27.70;99.90;;;;;;5013066;28;20451;-77
2022/09/11 11:57:42;;;;;;;0.50;0.30;;;27.20;99.90;;;;;;5014972;28;20462;-77
2022/09/11 12:00:13;;;;;;;3.33;3.03;;;26.50;99.90;;;;;;5014541;28;20481;-78
2022/09/11 12:02:48;;;;;;;1.53;0.83;;;25.70;99.90;;;;;;5014540;28;20439;-76
2022/09/11 12:05:17;;;;;;;6.57;1.80;;;25.20;99.90;;;;;;5014675;28;20427;-76
2022/09/11 12:07:47;;;;;;;3.70;3.30;;;25.00;99.90;;;;;;5014217;28;20439;-77
2022/09/11 12:10:22;;;;;;;0.60;0.50;;;25.10;99.90;;;;;;5014632;28;20493;-75
2022/09/11 12:12:53;;;;;;;5.10;4.57;;;25.60;99.90;;;;;;5014752;28;20434;-77
2022/09/11 12:15:22;;;;;;;0.50;0.30;;;25.10;99.90;;;;;;5014752;28;20500;-77
2022/09/11 12:17:59;;;;;;;1.90;1.00;;;25.00;99.90;;;;;;5014412;28;20573;-77
2022/09/11 12:20:38;;;;;;;1.53;1.43;;;26.00;99.90;;;;;;5015386;28;21113;-76
2022/09/11 12:23:28;;;;;;;2.30;2.20;;;26.90;99.90;;;;;;5015149;28;20521;-77
2022/09/11 12:26:16;;;;;;;1.77;1.70;;;27.10;99.90;;;;;;5013575;28;20438;-77
2022/09/11 12:28:44;;;;;;;0.50;0.30;;;28.20;99.90;;;;;;5014379;28;20446;-77
2022/09/11 12:31:12;;;;;;;1.23;0.70;;;28.70;99.90;;;;;;5013911;28;20467;-77
2022/09/11 12:33:55;;;;;;;2.07;1.93;;;29.20;99.90;;;;;;5013545;28;20534;-74
2022/09/11 12:36:46;;;;;;;0.50;0.30;;;29.70;99.90;;;;;;5013780;28;20937;-77
2022/09/11 12:39:26;;;;;;;1.97;1.87;;;28.80;99.90;;;;;;5013635;28;20478;-74
2022/09/11 12:41:53;;;;;;;1.47;1.47;;;27.90;99.90;;;;;;5013803;28;20451;-76
2022/09/11 12:44:31;;;;;;;0.50;0.30;;;27.40;99.90;;;;;;5013678;28;20443;-73
2022/09/11 12:47:11;;;;;;;1.80;1.70;;;27.40;99.90;;;;;;5013454;28;20445;-78
2022/09/11 12:49:39;;;;;;;0.70;0.47;;;26.80;99.90;;;;;;5013548;28;20462;-78
2022/09/11 12:52:17;;;;;;;0.50;0.30;;;26.50;99.90;;;;;;5013479;28;20441;-77
2022/09/11 12:54:45;;;;;;;0.50;0.40;;;26.30;99.90;;;;;;5013214;28;20431;-76
2022/09/11 12:57:19;;;;;;;0.50;0.40;;;26.40;99.90;;;;;;5013320;28;20529;-77
2022/09/11 12:59:53;;;;;;;0.50;0.40;;;26.70;99.90;;;;;;5013397;28;20451;-77
2022/09/11 13:02:27;;;;;;;0.50;0.40;;;26.90;99.90;;;;;;5013479;28;20450;-77
2022/09/11 13:04:55;;;;;;;0.50;0.30;;;27.00;99.90;;;;;;5013027;28;20510;-77
2022/09/11 13:07:30;;;;;;;1.93;1.83;;;27.50;99.90;;;;;;5013034;28;20443;-77
2022/09/11 13:10:02;;;;;;;0.90;0.77;;;27.40;99.90;;;;;;5013113;28;20466;-77